SBBRSBCY

Guest
Details From SBBR - Brasilia Presidente Juscelino Kubitsch
To SBCY - Marechal Rondon
Flight Number -
Tags Decoded
Created
Modified
Stats Distance 474 nm / 877 km
Max Altitude 0 ft / 0 m
Waypoints 2
Social Downloads 1
Likes 0
Share VATSIM

Download

Looking for another format? Having issues loading an existing format? Contact us
Advertisement - Login to hide

Notes

Decoded

Route

SBBR SBCY

ID Type Via Altitude Latitude Longitude Leg Dist Tot Dist Heading (true) Name
O SBBR APT - 0 ft / 0 m -15.86350˚ -47.92758˚ - 0 nm - -
O SBCY APT - 0 ft / 0 m -15.64372˚ -56.12163˚ 473 nm 473 nm 270° / 273° -

Altitude Profile

Advertisement - Login to hide

Weather


0- 5 10 15 20 25 30 35+ Temperature / ° C

Clouds and Precipitation
Forecast for 2018-05-23 06:00 UTC. Updated 22 minutes ago

Ground ~20,000 ft ~40,000 ft Winds

SBBR

Details ICAO SBBR (BSB)
Name Brasilia Presidente Juscelino Kubitsch
Region Brazil
Timezone America/Sao_Paulo (UTC-3.0)
Stats Elevation 3,479 ft / 1,060 m (AMSL)
Location -15.871101° -47.918626°
Runways 2
Magnetic Variation 21.594° W

METAR

SBBR 230500Z 00000KT CAVOK 13/11 Q1021

Decode

TAF

TAF SBBR 222200Z 2300/2324 00000KT 9999 FEW025 TN12/2308Z TX27/2317Z BECMG 2300/2301 CAVOK BECMG 2313/2314 08005KT BECMG 2315/2317 14006KT 9999 SCT040 BECMG 2321/2322 00000KT FEW030 RMK PEJ

Decode

Departure Runways

ID Width Length Bearing (true) Bearing (mag) Surface Threshold Offset Overrun Length
11L 148 ft / 45 m 10,493 ft / 3,198 m 86.35° 107.94° Asphalt 0 ft / 0 m 200 ft / 61 m
11R 148 ft / 45 m 10,839 ft / 3,304 m 86.00° 107.59° Asphalt 2,635 ft / 803 m 200 ft / 61 m
29L 148 ft / 45 m 10,839 ft / 3,304 m 265.99° 287.58° Asphalt 0 ft / 0 m 200 ft / 61 m
29R 148 ft / 45 m 10,493 ft / 3,198 m 266.34° 287.93° Asphalt 0 ft / 0 m 200 ft / 61 m

SBCY

Details ICAO SBCY (CGB)
Name Marechal Rondon
Region Brazil
Timezone America/Cuiaba (UTC-4.0)
Stats Elevation 609 ft / 186 m (AMSL)
Location -15.652930° -56.116720°
Runways 1
Magnetic Variation 17.466° W

METAR

SBCY 230500Z 19005KT CAVOK 18/15 Q1019

Decode

TAF

TAF SBCY 222200Z 2300/2324 16005KT CAVOK TN15/2308Z TX28/2317Z BECMG 2304/2306 33005KT BECMG 2315/2317 36005KT SCT020 BECMG 2321/2323 03005KT RMK PCQ

Decode

Destination Runways

ID Width Length Bearing (true) Bearing (mag) Surface Threshold Offset Overrun Length
17 148 ft / 45 m 7,558 ft / 2,304 m 152.83° 170.30° Asphalt 0 ft / 0 m 190 ft / 58 m
35 148 ft / 45 m 7,558 ft / 2,304 m 332.82° 350.29° Asphalt 0 ft / 0 m 190 ft / 58 m

Approach Navaids

Runway Type Ident Frequency Range Bearing (true) Bearing (mag) Slope Elevation
35 Localiser ICB 109.30 MHz 18 nm / 33 km 333.66° 351.12° - 609 ft / 186 m (AMSL)

Popular Alternatives